createdAt,value
2023-02-19T00:00:02.236Z,8.00
2023-02-19T00:05:03.959Z,8.63
2023-02-19T00:10:05.696Z,6.60
2023-02-19T00:15:07.420Z,4.45
2023-02-19T00:20:09.229Z,4.10
2023-02-19T00:25:10.677Z,3.45
2023-02-19T00:30:12.322Z,4.55
2023-02-19T00:35:13.848Z,5.80
2023-02-19T00:40:15.360Z,5.63
2023-02-19T00:45:16.888Z,5.95
2023-02-19T00:50:18.378Z,3.47
2023-02-19T00:55:19.837Z,7.65
2023-02-19T01:00:21.338Z,2.97
2023-02-19T01:05:22.805Z,5.18
2023-02-19T01:10:24.270Z,3.67
2023-02-19T01:15:25.723Z,3.85
2023-02-19T01:20:27.363Z,5.15
2023-02-19T01:25:28.833Z,7.88
2023-02-19T01:30:30.339Z,5.72
2023-02-19T01:35:31.814Z,4.85
2023-02-19T01:40:33.291Z,2.92
2023-02-19T01:45:35.455Z,1.58
2023-02-19T01:50:45.773Z,6.43
2023-02-19T01:55:47.842Z,3.95
2023-02-19T02:00:51.654Z,4.80
2023-02-19T02:06:14.758Z,6.65
2023-02-19T02:11:16.554Z,4.82
2023-02-19T02:16:45.172Z,4.15
2023-02-19T02:22:12.489Z,4.00
2023-02-19T02:27:42.922Z,4.97
2023-02-19T02:33:26.546Z,1.75
2023-02-19T02:38:29.577Z,3.95
2023-02-19T02:43:31.035Z,5.45
2023-02-19T02:48:38.379Z,5.05
2023-02-19T02:54:23.203Z,4.90
2023-02-19T02:59:26.134Z,5.60
2023-02-19T03:04:34.217Z,5.47
2023-02-19T03:09:40.583Z,5.82
2023-02-19T03:15:04.281Z,5.25
2023-02-19T03:20:07.547Z,4.35
2023-02-19T03:25:49.302Z,4.10
2023-02-19T03:30:51.679Z,5.88
2023-02-19T03:35:57.165Z,8.25
2023-02-19T03:41:04.246Z,5.07
2023-02-19T03:46:15.500Z,6.03
2023-02-19T03:51:39.182Z,3.17
2023-02-19T03:57:01.348Z,3.83
2023-02-19T04:02:36.258Z,4.85
2023-02-19T04:07:40.028Z,4.30
2023-02-19T04:12:43.521Z,4.55
2023-02-19T04:17:51.969Z,3.45
2023-02-19T04:22:53.424Z,9.43
2023-02-19T04:27:54.957Z,5.60
2023-02-19T04:32:56.431Z,3.67
2023-02-19T04:37:57.890Z,3.47
2023-02-19T04:42:59.535Z,6.13
2023-02-19T04:48:00.989Z,2.00
2023-02-19T04:53:02.464Z,4.60
2023-02-19T04:58:04.078Z,6.75
2023-02-19T05:03:05.539Z,2.83
2023-02-19T05:08:06.996Z,3.45
2023-02-19T05:13:08.570Z,4.13
2023-02-19T05:18:10.037Z,4.70
2023-02-19T05:23:11.543Z,6.28
2023-02-19T05:28:18.835Z,4.13
2023-02-19T05:33:21.824Z,7.20
2023-02-19T05:38:23.434Z,3.30
2023-02-19T05:43:24.901Z,7.15
2023-02-19T05:48:26.350Z,2.40
2023-02-19T05:53:27.806Z,3.50
2023-02-19T05:58:29.352Z,3.42
2023-02-19T06:03:30.833Z,4.97
2023-02-19T06:08:33.483Z,2.83
2023-02-19T06:13:34.954Z,8.60
2023-02-19T06:18:36.443Z,7.55
2023-02-19T06:23:38.401Z,4.97
2023-02-19T06:28:40.007Z,7.68
2023-02-19T06:33:41.498Z,5.85
2023-02-19T06:38:43.023Z,5.57
2023-02-19T06:43:44.572Z,2.40
2023-02-19T06:48:46.040Z,6.85
2023-02-19T06:53:47.507Z,5.32
2023-02-19T06:58:48.962Z,4.03
2023-02-19T07:03:51.043Z,4.85
2023-02-19T07:08:52.625Z,5.47
2023-02-19T07:13:57.734Z,4.43
2023-02-19T07:18:59.487Z,3.00
2023-02-19T07:24:00.943Z,3.35
2023-02-19T07:29:02.400Z,1.70
2023-02-19T07:34:03.852Z,4.35
2023-02-19T07:39:05.324Z,4.47
2023-02-19T07:44:06.830Z,5.00
2023-02-19T07:49:08.337Z,4.80
2023-02-19T07:54:09.836Z,5.00
2023-02-19T07:59:11.771Z,7.28
2023-02-19T08:04:13.735Z,6.70
2023-02-19T08:09:15.183Z,2.47
2023-02-19T08:14:16.642Z,5.38
2023-02-19T08:19:18.191Z,8.05
2023-02-19T08:24:19.657Z,7.40
2023-02-19T08:29:21.126Z,10.30
2023-02-19T08:34:22.583Z,3.78
2023-02-19T08:39:24.132Z,5.85
2023-02-19T08:44:25.680Z,4.15
2023-02-19T08:49:27.259Z,6.47
2023-02-19T08:54:29.003Z,5.53
2023-02-19T08:59:30.717Z,20.02
2023-02-19T09:04:32.205Z,39.15
2023-02-19T09:09:34.066Z,23.92
2023-02-19T09:14:35.554Z,7.20
2023-02-19T09:19:37.055Z,8.68
2023-02-19T09:24:38.519Z,4.07
2023-02-19T09:29:39.998Z,5.82
2023-02-19T09:34:41.698Z,3.22
2023-02-19T09:39:43.162Z,5.95
2023-02-19T09:44:47.957Z,4.85
2023-02-19T09:49:52.066Z,7.32
2023-02-19T09:54:57.570Z,6.22
2023-02-19T10:00:26.730Z,3.03
2023-02-19T10:05:28.307Z,6.15
2023-02-19T10:10:33.077Z,12.02
2023-02-19T10:15:49.434Z,8.50
2023-02-19T10:20:51.370Z,8.90
2023-02-19T10:25:54.621Z,10.15
2023-02-19T10:35:59.716Z,4.40
2023-02-19T10:41:13.139Z,5.03
2023-02-19T10:46:28.326Z,5.30
2023-02-19T10:51:39.472Z,5.05
2023-02-19T10:56:42.032Z,3.90
2023-02-19T11:01:59.748Z,4.75
2023-02-19T11:07:19.295Z,3.83
2023-02-19T11:12:26.794Z,3.70
2023-02-19T11:17:29.134Z,3.42
2023-02-19T11:22:37.993Z,5.20
2023-02-19T11:27:54.337Z,4.45
2023-02-19T11:32:56.395Z,8.68
2023-02-19T11:37:59.248Z,5.18
2023-02-19T11:43:23.407Z,6.70
2023-02-19T11:48:36.239Z,5.30
2023-02-19T11:53:42.132Z,2.90
2023-02-19T11:59:18.794Z,5.10
2023-02-19T12:04:38.717Z,4.35
2023-02-19T12:10:02.634Z,3.92
2023-02-19T12:15:44.193Z,3.80
2023-02-19T12:21:04.359Z,8.27
2023-02-19T12:26:17.804Z,4.05
2023-02-19T12:31:27.929Z,8.85
2023-02-19T12:37:07.015Z,7.05
2023-02-19T12:42:14.812Z,4.97
2023-02-19T12:47:23.421Z,6.25
2023-02-19T12:52:26.365Z,5.40
2023-02-19T12:57:30.026Z,6.57
2023-02-19T13:02:48.586Z,5.57
2023-02-19T13:07:56.959Z,3.22
2023-02-19T13:13:00.003Z,4.05
2023-02-19T13:23:31.138Z,2.70
2023-02-19T13:28:42.488Z,3.83
2023-02-19T13:34:20.429Z,6.50
2023-02-19T13:39:21.925Z,5.82
2023-02-19T13:44:25.733Z,5.78
2023-02-19T13:49:33.863Z,6.07
2023-02-19T13:54:39.857Z,4.20
2023-02-19T13:59:41.587Z,6.43
2023-02-19T14:05:00.350Z,4.00
2023-02-19T14:10:02.151Z,4.93
2023-02-19T14:15:40.335Z,8.38
2023-02-19T14:20:43.488Z,3.80
2023-02-19T14:25:50.222Z,5.55
2023-02-19T14:30:58.381Z,3.40
2023-02-19T14:36:05.806Z,7.60
2023-02-19T14:41:07.308Z,4.75
2023-02-19T14:46:29.367Z,6.80
2023-02-19T14:51:36.471Z,5.55
2023-02-19T14:56:37.924Z,9.02
2023-02-19T15:01:39.662Z,6.15
2023-02-19T15:06:41.229Z,3.08
2023-02-19T15:11:42.701Z,4.00
2023-02-19T15:16:44.150Z,5.55
2023-02-19T15:21:47.147Z,4.70
2023-02-19T15:26:54.109Z,4.03
2023-02-19T15:31:57.242Z,2.00
2023-02-19T15:37:01.053Z,6.55
2023-02-19T15:42:03.048Z,5.30
2023-02-19T15:47:08.857Z,3.50
2023-02-19T15:52:11.423Z,3.63
2023-02-19T15:57:16.660Z,6.57
2023-02-19T16:02:18.101Z,4.72
2023-02-19T16:07:32.493Z,8.23
2023-02-19T16:12:33.968Z,6.20
2023-02-19T16:17:35.443Z,3.05
2023-02-19T16:22:40.977Z,6.05
2023-02-19T16:27:42.538Z,7.45
2023-02-19T16:32:47.132Z,4.25
2023-02-19T16:37:58.557Z,6.47
2023-02-19T16:43:13.897Z,4.68
2023-02-19T16:48:15.348Z,6.55
2023-02-19T16:53:21.225Z,4.05
2023-02-19T16:58:22.698Z,6.13
2023-02-19T17:03:24.715Z,7.05
2023-02-19T17:08:34.390Z,7.45
2023-02-19T17:13:35.889Z,9.18
2023-02-19T17:18:37.593Z,6.05
2023-02-19T17:23:39.132Z,5.47
2023-02-19T17:28:41.519Z,8.38
2023-02-19T17:33:43.376Z,11.25
2023-02-19T17:38:45.010Z,7.78
2023-02-19T17:43:47.456Z,4.05
2023-02-19T17:48:49.186Z,6.70
2023-02-19T17:53:50.691Z,8.77
2023-02-19T17:58:52.482Z,7.07
2023-02-19T18:03:54.022Z,7.40
2023-02-19T18:08:55.527Z,11.05
2023-02-19T18:13:57.021Z,7.25
2023-02-19T18:19:01.387Z,7.00
2023-02-19T18:24:02.843Z,9.00
2023-02-19T18:29:05.146Z,7.72
2023-02-19T18:34:07.517Z,7.85
2023-02-19T18:39:08.981Z,7.68
2023-02-19T18:44:10.448Z,5.50
2023-02-19T18:49:11.924Z,6.72
2023-02-19T18:54:13.406Z,10.35
2023-02-19T18:59:15.056Z,6.78
2023-02-19T19:04:16.663Z,11.65
2023-02-19T19:09:18.193Z,8.43
2023-02-19T19:14:19.699Z,7.07
2023-02-19T19:19:21.189Z,11.18
2023-02-19T19:24:23.071Z,15.73
2023-02-19T19:29:24.562Z,9.70
2023-02-19T19:34:26.105Z,8.77
2023-02-19T19:39:27.580Z,10.38
2023-02-19T19:44:29.110Z,9.43
2023-02-19T19:49:30.573Z,16.33
2023-02-19T19:54:32.120Z,9.68
2023-02-19T19:59:33.575Z,9.10
2023-02-19T20:04:35.291Z,13.32
2023-02-19T20:09:36.793Z,13.57
2023-02-19T20:14:38.271Z,9.90
2023-02-19T20:19:39.841Z,17.30
2023-02-19T20:24:41.311Z,30.10
2023-02-19T20:29:44.506Z,24.40
2023-02-19T20:34:46.317Z,25.55
2023-02-19T20:39:47.801Z,21.55
2023-02-19T20:44:49.246Z,12.93
2023-02-19T20:49:51.763Z,13.73
2023-02-19T20:54:56.557Z,15.60
2023-02-19T20:59:58.036Z,16.40
2023-02-19T21:04:59.782Z,10.40
2023-02-19T21:10:01.238Z,11.93
2023-02-19T21:15:02.691Z,8.70
2023-02-19T21:20:04.394Z,7.60
2023-02-19T21:25:06.108Z,8.07
2023-02-19T21:30:08.054Z,11.45
2023-02-19T21:35:09.622Z,9.38
2023-02-19T21:40:12.111Z,11.30
2023-02-19T21:45:13.618Z,9.43
2023-02-19T21:50:15.060Z,8.77
2023-02-19T21:55:16.510Z,12.40
2023-02-19T22:00:18.159Z,17.15
2023-02-19T22:05:19.623Z,11.02
2023-02-19T22:10:21.471Z,9.93
2023-02-19T22:15:22.929Z,15.48
2023-02-19T22:20:24.395Z,10.68
2023-02-19T22:25:25.855Z,13.52
2023-02-19T22:30:27.411Z,15.25
2023-02-19T22:35:29.078Z,10.73
2023-02-19T22:40:30.552Z,17.88
2023-02-19T22:45:32.039Z,13.38
2023-02-19T22:50:33.528Z,12.68
2023-02-19T22:55:35.077Z,12.30
2023-02-19T23:00:36.553Z,17.83
2023-02-19T23:05:38.018Z,12.02
2023-02-19T23:10:40.871Z,18.90
2023-02-19T23:15:42.349Z,13.38
2023-02-19T23:20:43.808Z,13.75
2023-02-19T23:25:45.255Z,25.58
2023-02-19T23:30:46.849Z,17.95
2023-02-19T23:35:48.344Z,22.25
2023-02-19T23:40:49.825Z,19.33
2023-02-19T23:45:51.284Z,15.25
2023-02-19T23:50:52.755Z,16.73
2023-02-19T23:55:54.218Z,17.83
